KSEP

Stephenville Clark Regional Airport

Stephenville, Texas, USA
METAR KSEP 171755Z AUTO 00000KT 5SM SCT005 BKN021 OVC026 10/09 A3039 RMK AO2 P0009 60030 T01000085 10102 20090
Observed Flight Rules
Oct-17 @ 17:55 UTC (24 minutes ago) Marginal Visual Flight Rules
Visibility Clouds
5 miles
  • Scattered at 500' AGL
  • Broken at 2,100' AGL
  • Overcast at 2,600' AGL
Temperatures Readings Precipitation
Current 10°C / 50°F
Dewpoint 9°C / 48°F
Humidity 94%
Altimeter 30.39" Hg
Pressure 1029 hPa
Elevation 402
Current Rain 0.09
METAR KSEP 171755Z AUTO 00000KT 5SM SCT005 BKN021 OVC026 10/09 A3039 RMK AO2 P0009 60030 T01000085 10102 20090
Observed Flight Rules
Oct-17 @ 17:55 UTC
(24 minutes ago)
MVFR
Clouds
  • Scattered at 500' AGL
  • Broken at 2,100' AGL
  • Overcast at 2,600' AGL
Temperature Dewpoint
10°C / 50°F 9°C / 48°F
Humidity Altimeter Pressure
94% 30.39" Hg 1029 hPa
Current Rain
0.09